sensor_id;sensor_type;location;lat;lon;timestamp;temperature;humidity
67196;DHT22;54122;53.538;49.366;2023-05-20T00:02:06;11.50;66.10
67196;DHT22;54122;53.538;49.366;2023-05-20T00:04:32;11.40;66.60
67196;DHT22;54122;53.538;49.366;2023-05-20T00:06:58;11.30;67.10
67196;DHT22;54122;53.538;49.366;2023-05-20T00:09:24;11.20;67.60
67196;DHT22;54122;53.538;49.366;2023-05-20T00:11:51;11.20;68.20
67196;DHT22;54122;53.538;49.366;2023-05-20T00:14:17;11.00;68.50
67196;DHT22;54122;53.538;49.366;2023-05-20T00:16:43;11.00;69.10
67196;DHT22;54122;53.538;49.366;2023-05-20T00:19:10;10.90;69.40
67196;DHT22;54122;53.538;49.366;2023-05-20T00:21:36;10.80;69.80
67196;DHT22;54122;53.538;49.366;2023-05-20T00:24:02;10.80;70.00
67196;DHT22;54122;53.538;49.366;2023-05-20T00:26:28;10.80;70.20
67196;DHT22;54122;53.538;49.366;2023-05-20T00:28:55;10.80;70.40
67196;DHT22;54122;53.538;49.366;2023-05-20T00:31:21;10.80;70.60
67196;DHT22;54122;53.538;49.366;2023-05-20T00:33:47;10.70;70.70
67196;DHT22;54122;53.538;49.366;2023-05-20T00:36:14;10.70;71.00
67196;DHT22;54122;53.538;49.366;2023-05-20T00:38:40;10.70;71.20
67196;DHT22;54122;53.538;49.366;2023-05-20T00:41:06;10.60;71.40
67196;DHT22;54122;53.538;49.366;2023-05-20T00:43:32;10.60;71.40
67196;DHT22;54122;53.538;49.366;2023-05-20T00:45:59;10.50;71.40
67196;DHT22;54122;53.538;49.366;2023-05-20T00:48:29;10.50;71.60
67196;DHT22;54122;53.538;49.366;2023-05-20T00:50:58;10.50;72.00
67196;DHT22;54122;53.538;49.366;2023-05-20T00:53:24;10.50;71.90
67196;DHT22;54122;53.538;49.366;2023-05-20T00:55:50;10.60;72.10
67196;DHT22;54122;53.538;49.366;2023-05-20T00:58:16;10.70;72.10
67196;DHT22;54122;53.538;49.366;2023-05-20T01:00:43;10.70;71.80
67196;DHT22;54122;53.538;49.366;2023-05-20T01:03:09;10.80;71.70
67196;DHT22;54122;53.538;49.366;2023-05-20T01:05:35;10.90;71.60
67196;DHT22;54122;53.538;49.366;2023-05-20T01:08:01;11.00;71.40
67196;DHT22;54122;53.538;49.366;2023-05-20T01:10:28;11.10;71.20
67196;DHT22;54122;53.538;49.366;2023-05-20T01:12:58;11.20;71.00
67196;DHT22;54122;53.538;49.366;2023-05-20T01:15:27;11.30;71.00
67196;DHT22;54122;53.538;49.366;2023-05-20T01:18:00;11.40;70.70
67196;DHT22;54122;53.538;49.366;2023-05-20T01:20:27;11.50;70.60
67196;DHT22;54122;53.538;49.366;2023-05-20T01:22:57;11.50;70.50
67196;DHT22;54122;53.538;49.366;2023-05-20T01:25:24;11.60;70.30
67196;DHT22;54122;53.538;49.366;2023-05-20T01:27:51;11.70;70.30
67196;DHT22;54122;53.538;49.366;2023-05-20T01:30:19;11.80;70.10
67196;DHT22;54122;53.538;49.366;2023-05-20T01:32:56;11.90;69.80
67196;DHT22;54122;53.538;49.366;2023-05-20T01:35:23;12.00;69.60
67196;DHT22;54122;53.538;49.366;2023-05-20T01:37:49;12.00;69.50
67196;DHT22;54122;53.538;49.366;2023-05-20T01:40:17;12.10;69.40
67196;DHT22;54122;53.538;49.366;2023-05-20T01:42:44;12.30;69.30
67196;DHT22;54122;53.538;49.366;2023-05-20T01:45:11;12.60;69.60
67196;DHT22;54122;53.538;49.366;2023-05-20T01:47:37;13.10;67.70
67196;DHT22;54122;53.538;49.366;2023-05-20T01:50:04;13.30;66.70
67196;DHT22;54122;53.538;49.366;2023-05-20T01:52:31;13.80;65.90
67196;DHT22;54122;53.538;49.366;2023-05-20T01:54:57;14.50;63.60
67196;DHT22;54122;53.538;49.366;2023-05-20T01:57:23;15.00;62.20
67196;DHT22;54122;53.538;49.366;2023-05-20T01:59:49;15.90;60.00
67196;DHT22;54122;53.538;49.366;2023-05-20T02:02:16;16.90;56.50
67196;DHT22;54122;53.538;49.366;2023-05-20T02:04:45;17.80;54.10
67196;DHT22;54122;53.538;49.366;2023-05-20T02:07:15;18.50;51.80
67196;DHT22;54122;53.538;49.366;2023-05-20T02:09:41;19.00;50.00
67196;DHT22;54122;53.538;49.366;2023-05-20T02:12:07;19.30;48.20
67196;DHT22;54122;53.538;49.366;2023-05-20T02:14:34;19.40;47.50
67196;DHT22;54122;53.538;49.366;2023-05-20T02:17:00;19.70;46.90
67196;DHT22;54122;53.538;49.366;2023-05-20T02:19:26;20.20;45.80
67196;DHT22;54122;53.538;49.366;2023-05-20T02:21:52;20.50;44.10
67196;DHT22;54122;53.538;49.366;2023-05-20T02:24:18;20.20;44.00
67196;DHT22;54122;53.538;49.366;2023-05-20T02:26:46;19.70;45.40
67196;DHT22;54122;53.538;49.366;2023-05-20T02:29:14;19.30;46.70
67196;DHT22;54122;53.538;49.366;2023-05-20T02:31:40;19.40;46.40
67196;DHT22;54122;53.538;49.366;2023-05-20T02:34:06;19.80;45.30
67196;DHT22;54122;53.538;49.366;2023-05-20T02:36:33;20.60;43.70
67196;DHT22;54122;53.538;49.366;2023-05-20T02:38:59;21.40;41.60
67196;DHT22;54122;53.538;49.366;2023-05-20T02:41:26;21.90;39.50
67196;DHT22;54122;53.538;49.366;2023-05-20T02:43:52;22.00;39.20
67196;DHT22;54122;53.538;49.366;2023-05-20T02:46:19;22.10;40.20
67196;DHT22;54122;53.538;49.366;2023-05-20T02:48:45;22.20;38.20
67196;DHT22;54122;53.538;49.366;2023-05-20T02:51:11;22.30;38.50
67196;DHT22;54122;53.538;49.366;2023-05-20T02:53:37;22.60;37.50
67196;DHT22;54122;53.538;49.366;2023-05-20T02:56:03;22.60;37.40
67196;DHT22;54122;53.538;49.366;2023-05-20T02:58:30;22.80;37.60
67196;DHT22;54122;53.538;49.366;2023-05-20T03:00:58;23.30;36.50
67196;DHT22;54122;53.538;49.366;2023-05-20T03:03:25;23.50;36.10
67196;DHT22;54122;53.538;49.366;2023-05-20T03:05:54;23.80;35.40
67196;DHT22;54122;53.538;49.366;2023-05-20T03:08:21;24.20;34.70
67196;DHT22;54122;53.538;49.366;2023-05-20T03:10:48;24.50;34.00
67196;DHT22;54122;53.538;49.366;2023-05-20T03:13:14;24.70;33.70
67196;DHT22;54122;53.538;49.366;2023-05-20T03:15:41;25.00;33.20
67196;DHT22;54122;53.538;49.366;2023-05-20T03:18:09;25.20;31.90
67196;DHT22;54122;53.538;49.366;2023-05-20T03:20:35;25.20;32.40
67196;DHT22;54122;53.538;49.366;2023-05-20T03:23:06;25.50;32.10
67196;DHT22;54122;53.538;49.366;2023-05-20T03:25:33;25.50;31.50
67196;DHT22;54122;53.538;49.366;2023-05-20T03:27:59;25.50;31.60
67196;DHT22;54122;53.538;49.366;2023-05-20T03:30:28;25.80;31.50
67196;DHT22;54122;53.538;49.366;2023-05-20T03:32:55;26.10;30.20
67196;DHT22;54122;53.538;49.366;2023-05-20T03:35:25;26.00;30.00
67196;DHT22;54122;53.538;49.366;2023-05-20T03:37:51;25.80;29.50
67196;DHT22;54122;53.538;49.366;2023-05-20T03:40:18;25.50;29.80
67196;DHT22;54122;53.538;49.366;2023-05-20T03:42:48;25.30;30.20
67196;DHT22;54122;53.538;49.366;2023-05-20T03:45:15;25.40;30.70
67196;DHT22;54122;53.538;49.366;2023-05-20T03:47:41;25.80;30.00
67196;DHT22;54122;53.538;49.366;2023-05-20T03:50:08;25.80;29.60
67196;DHT22;54122;53.538;49.366;2023-05-20T03:52:34;25.90;29.70
67196;DHT22;54122;53.538;49.366;2023-05-20T03:55:00;26.30;29.30
67196;DHT22;54122;53.538;49.366;2023-05-20T03:57:26;26.60;29.10
67196;DHT22;54122;53.538;49.366;2023-05-20T03:59:54;26.70;28.80
67196;DHT22;54122;53.538;49.366;2023-05-20T04:02:20;26.90;27.80
67196;DHT22;54122;53.538;49.366;2023-05-20T04:04:46;27.20;28.20
67196;DHT22;54122;53.538;49.366;2023-05-20T04:07:12;27.20;28.80
67196;DHT22;54122;53.538;49.366;2023-05-20T04:09:39;27.10;27.60
67196;DHT22;54122;53.538;49.366;2023-05-20T04:12:05;26.90;27.80
67196;DHT22;54122;53.538;49.366;2023-05-20T04:14:32;26.90;28.40
67196;DHT22;54122;53.538;49.366;2023-05-20T04:17:20;27.20;27.80
67196;DHT22;54122;53.538;49.366;2023-05-20T04:19:46;27.10;27.60
67196;DHT22;54122;53.538;49.366;2023-05-20T04:22:12;26.90;28.10
67196;DHT22;54122;53.538;49.366;2023-05-20T04:24:38;27.40;27.40
67196;DHT22;54122;53.538;49.366;2023-05-20T04:29:51;27.50;26.80
67196;DHT22;54122;53.538;49.366;2023-05-20T04:32:18;27.50;27.20
67196;DHT22;54122;53.538;49.366;2023-05-20T04:34:45;28.00;27.10
67196;DHT22;54122;53.538;49.366;2023-05-20T04:37:11;28.80;26.30
67196;DHT22;54122;53.538;49.366;2023-05-20T04:39:37;29.20;25.80
67196;DHT22;54122;53.538;49.366;2023-05-20T04:42:05;29.20;25.40
67196;DHT22;54122;53.538;49.366;2023-05-20T04:44:31;28.90;25.80
67196;DHT22;54122;53.538;49.366;2023-05-20T04:46:57;28.50;25.60
67196;DHT22;54122;53.538;49.366;2023-05-20T04:49:24;28.10;26.60
67196;DHT22;54122;53.538;49.366;2023-05-20T04:51:51;28.80;26.30
67196;DHT22;54122;53.538;49.366;2023-05-20T04:54:17;29.20;25.70
67196;DHT22;54122;53.538;49.366;2023-05-20T04:56:45;29.50;25.10
67196;DHT22;54122;53.538;49.366;2023-05-20T04:59:12;29.60;24.90
67196;DHT22;54122;53.538;49.366;2023-05-20T05:01:38;29.70;24.70
67196;DHT22;54122;53.538;49.366;2023-05-20T05:04:04;29.80;24.80
67196;DHT22;54122;53.538;49.366;2023-05-20T05:06:31;29.80;24.80
67196;DHT22;54122;53.538;49.366;2023-05-20T05:08:57;29.80;24.70
67196;DHT22;54122;53.538;49.366;2023-05-20T05:11:23;29.90;24.60
67196;DHT22;54122;53.538;49.366;2023-05-20T05:13:49;29.80;24.50
67196;DHT22;54122;53.538;49.366;2023-05-20T05:16:15;29.70;24.60
67196;DHT22;54122;53.538;49.366;2023-05-20T05:18:41;29.80;24.60
67196;DHT22;54122;53.538;49.366;2023-05-20T05:21:07;30.10;24.50
67196;DHT22;54122;53.538;49.366;2023-05-20T05:23:34;30.50;24.20
67196;DHT22;54122;53.538;49.366;2023-05-20T05:26:00;30.50;23.50
67196;DHT22;54122;53.538;49.366;2023-05-20T05:31:11;30.20;24.00
67196;DHT22;54122;53.538;49.366;2023-05-20T05:33:37;29.90;24.10
67196;DHT22;54122;53.538;49.366;2023-05-20T05:36:03;29.90;24.40
67196;DHT22;54122;53.538;49.366;2023-05-20T05:38:31;30.40;24.00
67196;DHT22;54122;53.538;49.366;2023-05-20T05:40:57;30.60;23.30
67196;DHT22;54122;53.538;49.366;2023-05-20T05:46:09;30.20;24.20
67196;DHT22;54122;53.538;49.366;2023-05-20T05:48:35;30.30;24.00
67196;DHT22;54122;53.538;49.366;2023-05-20T05:51:02;30.70;23.90
67196;DHT22;54122;53.538;49.366;2023-05-20T05:53:28;30.90;23.70
67196;DHT22;54122;53.538;49.366;2023-05-20T05:55:54;31.30;23.30
67196;DHT22;54122;53.538;49.366;2023-05-20T05:58:20;31.40;23.30
67196;DHT22;54122;53.538;49.366;2023-05-20T06:00:50;31.10;22.80
67196;DHT22;54122;53.538;49.366;2023-05-20T06:03:17;30.70;23.50
67196;DHT22;54122;53.538;49.366;2023-05-20T06:05:46;30.90;23.80
67196;DHT22;54122;53.538;49.366;2023-05-20T06:10:57;31.50;22.90
67196;DHT22;54122;53.538;49.366;2023-05-20T06:13:24;31.20;22.90
67196;DHT22;54122;53.538;49.366;2023-05-20T06:15:50;31.30;23.10
67196;DHT22;54122;53.538;49.366;2023-05-20T06:18:16;31.30;22.80
67196;DHT22;54122;53.538;49.366;2023-05-20T06:20:42;30.90;23.20
67196;DHT22;54122;53.538;49.366;2023-05-20T06:23:08;30.70;22.90
67196;DHT22;54122;53.538;49.366;2023-05-20T06:25:35;30.30;23.50
67196;DHT22;54122;53.538;49.366;2023-05-20T06:28:02;30.40;23.80
67196;DHT22;54122;53.538;49.366;2023-05-20T06:30:28;30.60;23.60
67196;DHT22;54122;53.538;49.366;2023-05-20T06:33:13;31.20;23.10
67196;DHT22;54122;53.538;49.366;2023-05-20T06:35:39;31.40;23.10
67196;DHT22;54122;53.538;49.366;2023-05-20T06:38:06;31.20;23.00
67196;DHT22;54122;53.538;49.366;2023-05-20T06:40:32;30.70;23.40
67196;DHT22;54122;53.538;49.366;2023-05-20T06:42:58;31.00;22.90
67196;DHT22;54122;53.538;49.366;2023-05-20T06:45:24;30.10;23.50
67196;DHT22;54122;53.538;49.366;2023-05-20T06:47:50;29.80;24.30
67196;DHT22;54122;53.538;49.366;2023-05-20T06:50:19;29.10;24.80
67196;DHT22;54122;53.538;49.366;2023-05-20T06:52:45;28.30;25.80
67196;DHT22;54122;53.538;49.366;2023-05-20T06:55:30;28.10;26.60
67196;DHT22;54122;53.538;49.366;2023-05-20T06:57:56;27.30;27.30
67196;DHT22;54122;53.538;49.366;2023-05-20T07:00:23;27.20;27.90
67196;DHT22;54122;53.538;49.366;2023-05-20T07:05:33;26.10;28.20
67196;DHT22;54122;53.538;49.366;2023-05-20T07:08:00;25.50;29.30
67196;DHT22;54122;53.538;49.366;2023-05-20T07:10:45;26.10;29.40
67196;DHT22;54122;53.538;49.366;2023-05-20T07:13:11;27.80;27.60
67196;DHT22;54122;53.538;49.366;2023-05-20T07:15:37;28.90;26.10
67196;DHT22;54122;53.538;49.366;2023-05-20T07:18:04;29.60;25.10
67196;DHT22;54122;53.538;49.366;2023-05-20T07:20:30;29.90;24.30
67196;DHT22;54122;53.538;49.366;2023-05-20T07:22:56;29.90;24.30
67196;DHT22;54122;53.538;49.366;2023-05-20T07:25:22;29.50;24.70
67196;DHT22;54122;53.538;49.366;2023-05-20T07:27:48;29.60;24.40
67196;DHT22;54122;53.538;49.366;2023-05-20T07:30:15;30.00;24.30
67196;DHT22;54122;53.538;49.366;2023-05-20T07:32:41;30.30;24.90
67196;DHT22;54122;53.538;49.366;2023-05-20T07:35:07;30.40;23.50
67196;DHT22;54122;53.538;49.366;2023-05-20T07:37:34;30.40;24.10
67196;DHT22;54122;53.538;49.366;2023-05-20T07:40:00;31.00;23.70
67196;DHT22;54122;53.538;49.366;2023-05-20T07:42:45;31.10;22.80
67196;DHT22;54122;53.538;49.366;2023-05-20T07:45:11;30.60;23.40
67196;DHT22;54122;53.538;49.366;2023-05-20T07:47:37;30.20;23.10
67196;DHT22;54122;53.538;49.366;2023-05-20T07:53:26;30.00;23.60
67196;DHT22;54122;53.538;49.366;2023-05-20T07:55:52;30.80;23.30
67196;DHT22;54122;53.538;49.366;2023-05-20T07:58:18;31.10;23.10
67196;DHT22;54122;53.538;49.366;2023-05-20T08:00:44;31.30;22.90
67196;DHT22;54122;53.538;49.366;2023-05-20T08:03:11;31.00;22.30
67196;DHT22;54122;53.538;49.366;2023-05-20T08:05:56;30.70;22.60
67196;DHT22;54122;53.538;49.366;2023-05-20T08:08:40;30.60;23.00
67196;DHT22;54122;53.538;49.366;2023-05-20T08:11:25;31.20;22.80
67196;DHT22;54122;53.538;49.366;2023-05-20T08:13:51;31.80;23.10
67196;DHT22;54122;53.538;49.366;2023-05-20T08:16:36;31.70;21.70
67196;DHT22;54122;53.538;49.366;2023-05-20T08:19:02;30.30;23.10
67196;DHT22;54122;53.538;49.366;2023-05-20T08:21:29;29.70;23.60
67196;DHT22;54122;53.538;49.366;2023-05-20T08:23:55;28.90;24.70
67196;DHT22;54122;53.538;49.366;2023-05-20T08:26:21;28.80;25.30
67196;DHT22;54122;53.538;49.366;2023-05-20T08:28:47;29.40;25.30
67196;DHT22;54122;53.538;49.366;2023-05-20T08:31:14;29.40;24.40
67196;DHT22;54122;53.538;49.366;2023-05-20T08:36:25;29.80;24.70
67196;DHT22;54122;53.538;49.366;2023-05-20T08:38:51;30.40;24.80
67196;DHT22;54122;53.538;49.366;2023-05-20T08:41:54;29.70;24.40
67196;DHT22;54122;53.538;49.366;2023-05-20T08:44:21;28.00;26.00
67196;DHT22;54122;53.538;49.366;2023-05-20T08:46:49;26.60;27.60
67196;DHT22;54122;53.538;49.366;2023-05-20T08:49:16;25.70;29.20
67196;DHT22;54122;53.538;49.366;2023-05-20T08:52:01;25.80;30.00
67196;DHT22;54122;53.538;49.366;2023-05-20T08:54:45;27.00;29.00
67196;DHT22;54122;53.538;49.366;2023-05-20T08:57:12;27.60;27.80
67196;DHT22;54122;53.538;49.366;2023-05-20T09:02:37;27.00;27.90
67196;DHT22;54122;53.538;49.366;2023-05-20T09:05:22;26.90;27.90
67196;DHT22;54122;53.538;49.366;2023-05-20T09:07:48;26.80;27.80
67196;DHT22;54122;53.538;49.366;2023-05-20T09:13:00;27.20;27.80
67196;DHT22;54122;53.538;49.366;2023-05-20T09:18:31;27.00;28.30
67196;DHT22;54122;53.538;49.366;2023-05-20T09:24:02;26.30;28.70
67196;DHT22;54122;53.538;49.366;2023-05-20T09:26:47;26.10;29.00
67196;DHT22;54122;53.538;49.366;2023-05-20T09:29:13;25.90;29.10
67196;DHT22;54122;53.538;49.366;2023-05-20T09:31:39;25.70;29.50
67196;DHT22;54122;53.538;49.366;2023-05-20T09:34:06;25.50;29.90
67196;DHT22;54122;53.538;49.366;2023-05-20T09:36:51;25.50;30.20
67196;DHT22;54122;53.538;49.366;2023-05-20T09:39:23;25.20;30.50
67196;DHT22;54122;53.538;49.366;2023-05-20T09:42:04;25.00;31.20
67196;DHT22;54122;53.538;49.366;2023-05-20T09:44:32;24.90;31.60
67196;DHT22;54122;53.538;49.366;2023-05-20T09:47:00;24.90;31.50
67196;DHT22;54122;53.538;49.366;2023-05-20T09:49:46;24.70;31.80
67196;DHT22;54122;53.538;49.366;2023-05-20T09:52:14;24.50;32.50
67196;DHT22;54122;53.538;49.366;2023-05-20T09:54:42;24.50;32.60
67196;DHT22;54122;53.538;49.366;2023-05-20T09:57:29;24.30;32.30
67196;DHT22;54122;53.538;49.366;2023-05-20T09:59:55;24.20;32.70
67196;DHT22;54122;53.538;49.366;2023-05-20T10:02:22;24.20;33.20
67196;DHT22;54122;53.538;49.366;2023-05-20T10:04:50;24.30;33.30
67196;DHT22;54122;53.538;49.366;2023-05-20T10:10:07;24.50;32.80
67196;DHT22;54122;53.538;49.366;2023-05-20T10:21:28;25.00;32.50
67196;DHT22;54122;53.538;49.366;2023-05-20T10:24:07;24.80;32.60
67196;DHT22;54122;53.538;49.366;2023-05-20T10:26:38;24.50;33.20
67196;DHT22;54122;53.538;49.366;2023-05-20T10:29:17;24.30;33.70
67196;DHT22;54122;53.538;49.366;2023-05-20T10:31:49;24.10;34.50
67196;DHT22;54122;53.538;49.366;2023-05-20T10:34:47;23.80;34.40
67196;DHT22;54122;53.538;49.366;2023-05-20T10:37:22;23.50;34.90
67196;DHT22;54122;53.538;49.366;2023-05-20T10:39:50;23.20;35.60
67196;DHT22;54122;53.538;49.366;2023-05-20T10:42:27;23.10;35.90
67196;DHT22;54122;53.538;49.366;2023-05-20T10:44:53;23.20;36.10
67196;DHT22;54122;53.538;49.366;2023-05-20T10:47:19;23.10;36.10
67196;DHT22;54122;53.538;49.366;2023-05-20T10:49:46;23.10;36.40
67196;DHT22;54122;53.538;49.366;2023-05-20T10:52:13;23.10;36.70
67196;DHT22;54122;53.538;49.366;2023-05-20T10:54:47;23.10;36.80
67196;DHT22;54122;53.538;49.366;2023-05-20T10:57:13;23.20;36.70
67196;DHT22;54122;53.538;49.366;2023-05-20T10:59:40;23.30;36.90
67196;DHT22;54122;53.538;49.366;2023-05-20T11:02:07;23.40;37.00
67196;DHT22;54122;53.538;49.366;2023-05-20T11:04:36;23.40;36.50
67196;DHT22;54122;53.538;49.366;2023-05-20T11:10:07;23.70;36.50
67196;DHT22;54122;53.538;49.366;2023-05-20T11:12:34;24.40;35.50
67196;DHT22;54122;53.538;49.366;2023-05-20T11:15:19;24.80;34.50
67196;DHT22;54122;53.538;49.366;2023-05-20T11:20:20;24.90;33.90
67196;DHT22;54122;53.538;49.366;2023-05-20T11:22:46;25.00;33.90
67196;DHT22;54122;53.538;49.366;2023-05-20T11:25:15;25.10;34.00
67196;DHT22;54122;53.538;49.366;2023-05-20T11:27:42;24.90;34.00
67196;DHT22;54122;53.538;49.366;2023-05-20T11:30:13;24.70;34.40
67196;DHT22;54122;53.538;49.366;2023-05-20T11:32:59;24.60;35.00
67196;DHT22;54122;53.538;49.366;2023-05-20T11:35:26;24.40;35.20
67196;DHT22;54122;53.538;49.366;2023-05-20T11:38:15;24.20;35.40
67196;DHT22;54122;53.538;49.366;2023-05-20T11:41:00;24.20;35.70
67196;DHT22;54122;53.538;49.366;2023-05-20T11:43:26;24.60;35.30
67196;DHT22;54122;53.538;49.366;2023-05-20T11:45:54;24.90;34.90
67196;DHT22;54122;53.538;49.366;2023-05-20T11:48:20;25.00;34.10
67196;DHT22;54122;53.538;49.366;2023-05-20T11:51:07;24.90;34.60
67196;DHT22;54122;53.538;49.366;2023-05-20T11:53:33;24.90;34.40
67196;DHT22;54122;53.538;49.366;2023-05-20T11:56:00;24.80;34.60
67196;DHT22;54122;53.538;49.366;2023-05-20T12:01:15;24.50;34.90
67196;DHT22;54122;53.538;49.366;2023-05-20T12:03:42;24.50;34.70
67196;DHT22;54122;53.538;49.366;2023-05-20T12:06:11;24.50;34.90
67196;DHT22;54122;53.538;49.366;2023-05-20T12:08:38;24.30;35.00
67196;DHT22;54122;53.538;49.366;2023-05-20T12:11:04;24.30;35.40
67196;DHT22;54122;53.538;49.366;2023-05-20T12:13:30;24.40;35.20
67196;DHT22;54122;53.538;49.366;2023-05-20T12:15:57;24.30;34.90
67196;DHT22;54122;53.538;49.366;2023-05-20T12:18:23;24.20;35.50
67196;DHT22;54122;53.538;49.366;2023-05-20T12:20:49;24.20;35.40
67196;DHT22;54122;53.538;49.366;2023-05-20T12:23:15;24.30;35.40
67196;DHT22;54122;53.538;49.366;2023-05-20T12:25:41;24.30;35.40
67196;DHT22;54122;53.538;49.366;2023-05-20T12:28:08;24.50;35.30
67196;DHT22;54122;53.538;49.366;2023-05-20T12:30:52;24.80;35.10
67196;DHT22;54122;53.538;49.366;2023-05-20T12:33:19;24.90;34.30
67196;DHT22;54122;53.538;49.366;2023-05-20T12:38:49;25.00;34.60
67196;DHT22;54122;53.538;49.366;2023-05-20T12:41:15;24.90;34.10
67196;DHT22;54122;53.538;49.366;2023-05-20T12:43:42;24.70;34.50
67196;DHT22;54122;53.538;49.366;2023-05-20T12:49:11;24.50;34.50
67196;DHT22;54122;53.538;49.366;2023-05-20T12:51:37;24.50;34.80
67196;DHT22;54122;53.538;49.366;2023-05-20T12:54:04;24.40;35.10
67196;DHT22;54122;53.538;49.366;2023-05-20T12:59:16;24.30;35.50
67196;DHT22;54122;53.538;49.366;2023-05-20T13:04:27;24.30;36.10
67196;DHT22;54122;53.538;49.366;2023-05-20T13:06:53;24.20;36.50
67196;DHT22;54122;53.538;49.366;2023-05-20T13:09:38;24.10;36.40
67196;DHT22;54122;53.538;49.366;2023-05-20T13:12:04;24.10;36.70
67196;DHT22;54122;53.538;49.366;2023-05-20T13:14:31;24.10;36.50
67196;DHT22;54122;53.538;49.366;2023-05-20T13:19:42;24.00;36.20
67196;DHT22;54122;53.538;49.366;2023-05-20T13:22:10;24.00;36.20
67196;DHT22;54122;53.538;49.366;2023-05-20T13:24:37;24.00;36.30
67196;DHT22;54122;53.538;49.366;2023-05-20T13:27:03;24.00;36.30
67196;DHT22;54122;53.538;49.366;2023-05-20T13:29:30;24.10;36.20
67196;DHT22;54122;53.538;49.366;2023-05-20T13:31:56;24.20;36.20
67196;DHT22;54122;53.538;49.366;2023-05-20T13:40:12;24.00;36.80
67196;DHT22;54122;53.538;49.366;2023-05-20T13:42:38;23.80;37.00
67196;DHT22;54122;53.538;49.366;2023-05-20T13:45:05;23.70;37.40
67196;DHT22;54122;53.538;49.366;2023-05-20T13:47:31;23.60;37.60
67196;DHT22;54122;53.538;49.366;2023-05-20T13:49:58;23.50;37.50
67196;DHT22;54122;53.538;49.366;2023-05-20T13:52:24;23.40;37.70
67196;DHT22;54122;53.538;49.366;2023-05-20T13:54:51;23.30;37.90
67196;DHT22;54122;53.538;49.366;2023-05-20T13:57:17;23.30;37.90
67196;DHT22;54122;53.538;49.366;2023-05-20T14:00:02;23.40;38.00
67196;DHT22;54122;53.538;49.366;2023-05-20T14:05:14;23.40;38.00
67196;DHT22;54122;53.538;49.366;2023-05-20T14:07:40;23.40;38.20
67196;DHT22;54122;53.538;49.366;2023-05-20T14:10:07;23.30;38.00
67196;DHT22;54122;53.538;49.366;2023-05-20T14:12:34;23.30;38.00
67196;DHT22;54122;53.538;49.366;2023-05-20T14:15:00;23.20;38.50
67196;DHT22;54122;53.538;49.366;2023-05-20T14:17:26;23.10;38.50
67196;DHT22;54122;53.538;49.366;2023-05-20T14:19:52;23.10;38.80
67196;DHT22;54122;53.538;49.366;2023-05-20T14:22:18;22.90;39.10
67196;DHT22;54122;53.538;49.366;2023-05-20T14:24:44;22.60;40.20
67196;DHT22;54122;53.538;49.366;2023-05-20T14:27:29;22.30;40.90
67196;DHT22;54122;53.538;49.366;2023-05-20T14:29:55;22.00;41.60
67196;DHT22;54122;53.538;49.366;2023-05-20T14:32:22;21.70;42.20
67196;DHT22;54122;53.538;49.366;2023-05-20T14:34:48;21.50;43.10
67196;DHT22;54122;53.538;49.366;2023-05-20T14:37:14;21.40;43.80
67196;DHT22;54122;53.538;49.366;2023-05-20T14:39:40;21.30;44.10
67196;DHT22;54122;53.538;49.366;2023-05-20T14:44:51;21.00;46.00
67196;DHT22;54122;53.538;49.366;2023-05-20T14:47:17;20.90;46.70
67196;DHT22;54122;53.538;49.366;2023-05-20T14:52:31;20.90;47.70
67196;DHT22;54122;53.538;49.366;2023-05-20T14:54:57;21.00;47.00
67196;DHT22;54122;53.538;49.366;2023-05-20T14:57:23;21.00;46.70
67196;DHT22;54122;53.538;49.366;2023-05-20T14:59:50;21.00;46.40
67196;DHT22;54122;53.538;49.366;2023-05-20T15:02:18;21.00;46.60
67196;DHT22;54122;53.538;49.366;2023-05-20T15:04:44;21.00;46.80
67196;DHT22;54122;53.538;49.366;2023-05-20T15:07:13;20.90;46.70
67196;DHT22;54122;53.538;49.366;2023-05-20T15:12:43;20.90;46.90
67196;DHT22;54122;53.538;49.366;2023-05-20T15:15:10;20.90;48.40
67196;DHT22;54122;53.538;49.366;2023-05-20T15:17:36;20.80;47.80
67196;DHT22;54122;53.538;49.366;2023-05-20T15:20:02;20.60;48.90
67196;DHT22;54122;53.538;49.366;2023-05-20T15:22:29;20.40;49.40
67196;DHT22;54122;53.538;49.366;2023-05-20T15:25:13;20.30;49.80
67196;DHT22;54122;53.538;49.366;2023-05-20T15:30:25;20.10;50.40
67196;DHT22;54122;53.538;49.366;2023-05-20T15:32:51;20.00;51.70
67196;DHT22;54122;53.538;49.366;2023-05-20T15:35:17;19.90;53.10
67196;DHT22;54122;53.538;49.366;2023-05-20T15:37:43;19.70;54.00
67196;DHT22;54122;53.538;49.366;2023-05-20T15:40:10;19.60;54.50
67196;DHT22;54122;53.538;49.366;2023-05-20T15:42:36;19.50;55.30
67196;DHT22;54122;53.538;49.366;2023-05-20T15:45:02;19.40;56.30
67196;DHT22;54122;53.538;49.366;2023-05-20T15:47:28;19.30;57.00
67196;DHT22;54122;53.538;49.366;2023-05-20T15:50:31;19.20;57.70
67196;DHT22;54122;53.538;49.366;2023-05-20T15:52:58;19.00;57.80
67196;DHT22;54122;53.538;49.366;2023-05-20T15:55:42;18.90;58.20
67196;DHT22;54122;53.538;49.366;2023-05-20T15:58:09;18.80;58.60
67196;DHT22;54122;53.538;49.366;2023-05-20T16:00:36;18.60;59.30
67196;DHT22;54122;53.538;49.366;2023-05-20T16:05:47;18.40;60.30
67196;DHT22;54122;53.538;49.366;2023-05-20T16:08:13;18.30;60.80
67196;DHT22;54122;53.538;49.366;2023-05-20T16:10:39;18.10;61.40
67196;DHT22;54122;53.538;49.366;2023-05-20T16:13:43;18.10;61.70
67196;DHT22;54122;53.538;49.366;2023-05-20T16:16:27;17.90;62.00
67196;DHT22;54122;53.538;49.366;2023-05-20T16:19:30;17.70;62.70
67196;DHT22;54122;53.538;49.366;2023-05-20T16:21:57;17.70;62.80
67196;DHT22;54122;53.538;49.366;2023-05-20T16:27:07;17.40;63.90
67196;DHT22;54122;53.538;49.366;2023-05-20T16:29:52;17.30;64.30
67196;DHT22;54122;53.538;49.366;2023-05-20T16:32:18;17.10;64.50
67196;DHT22;54122;53.538;49.366;2023-05-20T16:34:47;17.00;64.90
67196;DHT22;54122;53.538;49.366;2023-05-20T16:37:14;17.00;65.30
67196;DHT22;54122;53.538;49.366;2023-05-20T16:39:40;16.90;65.60
67196;DHT22;54122;53.538;49.366;2023-05-20T16:44:52;16.90;65.40
67196;DHT22;54122;53.538;49.366;2023-05-20T16:47:19;16.90;65.50
67196;DHT22;54122;53.538;49.366;2023-05-20T16:50:04;16.90;65.30
67196;DHT22;54122;53.538;49.366;2023-05-20T16:52:32;17.00;65.00
67196;DHT22;54122;53.538;49.366;2023-05-20T16:55:16;17.10;64.80
67196;DHT22;54122;53.538;49.366;2023-05-20T16:57:43;17.20;64.60
67196;DHT22;54122;53.538;49.366;2023-05-20T17:00:27;17.20;64.40